Aviation Digital Data Service (ADDS)

Output produced by METARs form (0149 UTC 01 March 2021)
found at http://www.aviationweather.gov/metar/data/
 
METAR text: ROYN 010100Z AUTO 17007KT 130V220 9999 NSC 23/20 Q1017
Conditions at: ROYN (YONAGUNI AIRPORT, JP) observed 0100 UTC 01 March 2021
Temperature: 23.0°C (73°F)
Dewpoint: 20.0°C (68°F) [RH = 83%]
Pressure (altimeter): 30.03 inches Hg (1017.0 mb)
Winds: from the S (170 degrees) at 8 MPH (7 knots; 3.6 m/s)
Visibility: 6 or more miles (10+ km)
Ceiling: at least 12,000 feet AGL
Clouds: sky clear below 12,000 feet AGL
Weather: no significant weather observed at this time

METAR text: ROYN 010000Z AUTO 14004KT 9999 BKN028 22/20 Q1017
Conditions at: ROYN (YONAGUNI AIRPORT, JP) observed 0000 UTC 01 March 2021
Temperature: 22.0°C (72°F)
Dewpoint: 20.0°C (68°F) [RH = 88%]
Pressure (altimeter): 30.03 inches Hg (1017.0 mb)
Winds: from the SE (140 degrees) at 5 MPH (4 knots; 2.1 m/s)
Visibility: 6 or more miles (10+ km)
Ceiling: 2800 feet AGL
Clouds: broken clouds at 2800 feet AGL
Weather: no significant weather observed at this time

METAR text: ROYN 282300Z AUTO 15004KT 9999 OVC025 20/19 Q1017
Conditions at: ROYN (YONAGUNI AIRPORT, JP) observed 2300 UTC 28 February 2021
Temperature: 20.0°C (68°F)
Dewpoint: 19.0°C (66°F) [RH = 94%]
Pressure (altimeter): 30.03 inches Hg (1017.0 mb)
Winds: from the SSE (150 degrees) at 5 MPH (4 knots; 2.1 m/s)
Visibility: 6 or more miles (10+ km)
Ceiling: 2500 feet AGL
Clouds: overcast cloud deck at 2500 feet AGL
Weather: no significant weather observed at this time

METAR text: ROYN 282200Z AUTO 15003KT 9999 SCT023 18/18 Q1016
Conditions at: ROYN (YONAGUNI AIRPORT, JP) observed 2200 UTC 28 February 2021
Temperature: 18.0°C (64°F)
Dewpoint: 18.0°C (64°F) [RH = 100%]
Pressure (altimeter): 30.00 inches Hg (1016.0 mb)
Winds: from the SSE (150 degrees) at 3 MPH (3 knots; 1.5 m/s)
Visibility: 6 or more miles (10+ km)
Ceiling: at least 12,000 feet AGL
Clouds: scattered clouds at 2300 feet AGL
Weather: no significant weather observed at this time

METAR text: ROYN 282100Z AUTO 17003KT 9999 NCD 18/18 Q1016
Conditions at: ROYN (YONAGUNI AIRPORT, JP) observed 2100 UTC 28 February 2021
Temperature: 18.0°C (64°F)
Dewpoint: 18.0°C (64°F) [RH = 100%]
Pressure (altimeter): 30.00 inches Hg (1016.0 mb)
Winds: from the S (170 degrees) at 3 MPH (3 knots; 1.5 m/s)
Visibility: 6 or more miles (10+ km)
Ceiling: at least 12,000 feet AGL
Clouds: sky clear below 12,000 feet AGL
Weather: no significant weather observed at this time

METAR text: ROYN 282000Z AUTO 16002KT 9999 NCD 18/18 Q1016
Conditions at: ROYN (YONAGUNI AIRPORT, JP) observed 2000 UTC 28 February 2021
Temperature: 18.0°C (64°F)
Dewpoint: 18.0°C (64°F) [RH = 100%]
Pressure (altimeter): 30.00 inches Hg (1016.0 mb)
Winds: from the SSE (160 degrees) at 2 MPH (2 knots; 1.0 m/s)
Visibility: 6 or more miles (10+ km)
Ceiling: at least 12,000 feet AGL
Clouds: sky clear below 12,000 feet AGL
Weather: no significant weather observed at this time

METAR text: ROYN 281900Z AUTO 15002KT 9999 NCD 18/18 Q1016
Conditions at: ROYN (YONAGUNI AIRPORT, JP) observed 1900 UTC 28 February 2021
Temperature: 18.0°C (64°F)
Dewpoint: 18.0°C (64°F) [RH = 100%]
Pressure (altimeter): 30.00 inches Hg (1016.0 mb)
Winds: from the SSE (150 degrees) at 2 MPH (2 knots; 1.0 m/s)
Visibility: 6 or more miles (10+ km)
Ceiling: at least 12,000 feet AGL
Clouds: sky clear below 12,000 feet AGL
Weather: no significant weather observed at this time

METAR text: ROYN 281800Z AUTO 18003KT 9999 NCD 18/18 Q1016
Conditions at: ROYN (YONAGUNI AIRPORT, JP) observed 1800 UTC 28 February 2021
Temperature: 18.0°C (64°F)
Dewpoint: 18.0°C (64°F) [RH = 100%]
Pressure (altimeter): 30.00 inches Hg (1016.0 mb)
Winds: from the S (180 degrees) at 3 MPH (3 knots; 1.5 m/s)
Visibility: 6 or more miles (10+ km)
Ceiling: at least 12,000 feet AGL
Clouds: sky clear below 12,000 feet AGL
Weather: no significant weather observed at this time

METAR text: ROYN 281700Z AUTO 16003KT 9999 NCD 18/18 Q1016
Conditions at: ROYN (YONAGUNI AIRPORT, JP) observed 1700 UTC 28 February 2021
Temperature: 18.0°C (64°F)
Dewpoint: 18.0°C (64°F) [RH = 100%]
Pressure (altimeter): 30.00 inches Hg (1016.0 mb)
Winds: from the SSE (160 degrees) at 3 MPH (3 knots; 1.5 m/s)
Visibility: 6 or more miles (10+ km)
Ceiling: at least 12,000 feet AGL
Clouds: sky clear below 12,000 feet AGL
Weather: no significant weather observed at this time

METAR text: ROYN 281600Z AUTO 17003KT 9999 NCD 18/17 Q1016
Conditions at: ROYN (YONAGUNI AIRPORT, JP) observed 1600 UTC 28 February 2021
Temperature: 18.0°C (64°F)
Dewpoint: 17.0°C (63°F) [RH = 94%]
Pressure (altimeter): 30.00 inches Hg (1016.0 mb)
Winds: from the S (170 degrees) at 3 MPH (3 knots; 1.5 m/s)
Visibility: 6 or more miles (10+ km)
Ceiling: at least 12,000 feet AGL
Clouds: sky clear below 12,000 feet AGL
Weather: no significant weather observed at this time

METAR text: ROYN 281500Z AUTO 15004KT 9999 NCD 18/17 Q1016
Conditions at: ROYN (YONAGUNI AIRPORT, JP) observed 1500 UTC 28 February 2021
Temperature: 18.0°C (64°F)
Dewpoint: 17.0°C (63°F) [RH = 94%]
Pressure (altimeter): 30.00 inches Hg (1016.0 mb)
Winds: from the SSE (150 degrees) at 5 MPH (4 knots; 2.1 m/s)
Visibility: 6 or more miles (10+ km)
Ceiling: at least 12,000 feet AGL
Clouds: sky clear below 12,000 feet AGL
Weather: no significant weather observed at this time

METAR text: ROYN 281400Z AUTO 14002KT 9999 NCD 18/18 Q1016
Conditions at: ROYN (YONAGUNI AIRPORT, JP) observed 1400 UTC 28 February 2021
Temperature: 18.0°C (64°F)
Dewpoint: 18.0°C (64°F) [RH = 100%]
Pressure (altimeter): 30.00 inches Hg (1016.0 mb)
Winds: from the SE (140 degrees) at 2 MPH (2 knots; 1.0 m/s)
Visibility: 6 or more miles (10+ km)
Ceiling: at least 12,000 feet AGL
Clouds: sky clear below 12,000 feet AGL
Weather: no significant weather observed at this time

METAR text: ROYN 281300Z AUTO VRB02KT 9999 NCD 19/18 Q1016
Conditions at: ROYN (YONAGUNI AIRPORT, JP) observed 1300 UTC 28 February 2021
Temperature: 19.0°C (66°F)
Dewpoint: 18.0°C (64°F) [RH = 94%]
Pressure (altimeter): 30.00 inches Hg (1016.0 mb)
Winds: variable direction winds at 2 MPH (2 knots; 1.0 m/s)
Visibility: 6 or more miles (10+ km)
Ceiling: at least 12,000 feet AGL
Clouds: sky clear below 12,000 feet AGL
Weather: no significant weather observed at this time

METAR text: ROYN 281200Z AUTO 36004KT 9999 NCD 21/18 Q1016
Conditions at: ROYN (YONAGUNI AIRPORT, JP) observed 1200 UTC 28 February 2021
Temperature: 21.0°C (70°F)
Dewpoint: 18.0°C (64°F) [RH = 83%]
Pressure (altimeter): 30.00 inches Hg (1016.0 mb)
Winds: from the N (360 degrees) at 5 MPH (4 knots; 2.1 m/s)
Visibility: 6 or more miles (10+ km)
Ceiling: at least 12,000 feet AGL
Clouds: sky clear below 12,000 feet AGL
Weather: no significant weather observed at this time

METAR text: ROYN 281100Z AUTO 35006KT 9999 FEW034 21/18 Q1016
Conditions at: ROYN (YONAGUNI AIRPORT, JP) observed 1100 UTC 28 February 2021
Temperature: 21.0°C (70°F)
Dewpoint: 18.0°C (64°F) [RH = 83%]
Pressure (altimeter): 30.00 inches Hg (1016.0 mb)
Winds: from the N (350 degrees) at 7 MPH (6 knots; 3.1 m/s)
Visibility: 6 or more miles (10+ km)
Ceiling: at least 12,000 feet AGL
Clouds: few clouds at 3400 feet AGL
Weather: no significant weather observed at this time

METAR text: ROYN 281000Z AUTO 03006KT 9999 NCD 21/18 Q1015
Conditions at: ROYN (YONAGUNI AIRPORT, JP) observed 1000 UTC 28 February 2021
Temperature: 21.0°C (70°F)
Dewpoint: 18.0°C (64°F) [RH = 83%]
Pressure (altimeter): 29.97 inches Hg (1015.0 mb)
Winds: from the NNE (30 degrees) at 7 MPH (6 knots; 3.1 m/s)
Visibility: 6 or more miles (10+ km)
Ceiling: at least 12,000 feet AGL
Clouds: sky clear below 12,000 feet AGL
Weather: no significant weather observed at this time

METAR text: ROYN 280900Z AUTO 35008KT 9999 FEW019 SCT023 OVC028 22/18 Q1015
Conditions at: ROYN (YONAGUNI AIRPORT, JP) observed 0900 UTC 28 February 2021
Temperature: 22.0°C (72°F)
Dewpoint: 18.0°C (64°F) [RH = 78%]
Pressure (altimeter): 29.97 inches Hg (1015.0 mb)
Winds: from the N (350 degrees) at 9 MPH (8 knots; 4.1 m/s)
Visibility: 6 or more miles (10+ km)
Ceiling: 2800 feet AGL
Clouds: few clouds at 1900 feet AGL
scattered clouds at 2300 feet AGL
overcast cloud deck at 2800 feet AGL
Weather: no significant weather observed at this time

METAR text: ROYN 280800Z AUTO 35011KT 9999 SCT018 BKN023 OVC026 22/18 Q1015
Conditions at: ROYN (YONAGUNI AIRPORT, JP) observed 0800 UTC 28 February 2021
Temperature: 22.0°C (72°F)
Dewpoint: 18.0°C (64°F) [RH = 78%]
Pressure (altimeter): 29.97 inches Hg (1015.0 mb)
Winds: from the N (350 degrees) at 13 MPH (11 knots; 5.7 m/s)
Visibility: 6 or more miles (10+ km)
Ceiling: 2300 feet AGL
Clouds: scattered clouds at 1800 feet AGL
broken clouds at 2300 feet AGL
overcast cloud deck at 2600 feet AGL
Weather: no significant weather observed at this time

METAR text: ROYN 280700Z AUTO 35012KT 9999 SCT019 BKN023 BKN028 22/18 Q1014
Conditions at: ROYN (YONAGUNI AIRPORT, JP) observed 0700 UTC 28 February 2021
Temperature: 22.0°C (72°F)
Dewpoint: 18.0°C (64°F) [RH = 78%]
Pressure (altimeter): 29.94 inches Hg (1014.0 mb)
Winds: from the N (350 degrees) at 14 MPH (12 knots; 6.2 m/s)
Visibility: 6 or more miles (10+ km)
Ceiling: 2300 feet AGL
Clouds: scattered clouds at 1900 feet AGL
broken clouds at 2300 feet AGL
broken clouds at 2800 feet AGL
Weather: no significant weather observed at this time

METAR text: ROYN 280600Z AUTO 35011KT 9999 SCT020 BKN022 BKN023 22/18 Q1015
Conditions at: ROYN (YONAGUNI AIRPORT, JP) observed 0600 UTC 28 February 2021
Temperature: 22.0°C (72°F)
Dewpoint: 18.0°C (64°F) [RH = 78%]
Pressure (altimeter): 29.97 inches Hg (1015.0 mb)
Winds: from the N (350 degrees) at 13 MPH (11 knots; 5.7 m/s)
Visibility: 6 or more miles (10+ km)
Ceiling: 2200 feet AGL
Clouds: scattered clouds at 2000 feet AGL
broken clouds at 2200 feet AGL
broken clouds at 2300 feet AGL
Weather: no significant weather observed at this time

METAR text: ROYN 280500Z AUTO 36008KT 9999 SCT025 BKN029 23/18 Q1015
Conditions at: ROYN (YONAGUNI AIRPORT, JP) observed 0500 UTC 28 February 2021
Temperature: 23.0°C (73°F)
Dewpoint: 18.0°C (64°F) [RH = 73%]
Pressure (altimeter): 29.97 inches Hg (1015.0 mb)
Winds: from the N (360 degrees) at 9 MPH (8 knots; 4.1 m/s)
Visibility: 6 or more miles (10+ km)
Ceiling: 2900 feet AGL
Clouds: scattered clouds at 2500 feet AGL
broken clouds at 2900 feet AGL
Weather: no significant weather observed at this time

METAR text: ROYN 280400Z AUTO 35008KT 8000 BKN022 OVC025 22/18 Q1016
Conditions at: ROYN (YONAGUNI AIRPORT, JP) observed 0400 UTC 28 February 2021
Temperature: 22.0°C (72°F)
Dewpoint: 18.0°C (64°F) [RH = 78%]
Pressure (altimeter): 30.00 inches Hg (1016.0 mb)
Winds: from the N (350 degrees) at 9 MPH (8 knots; 4.1 m/s)
Visibility: 5 miles ( 8 km)
Ceiling: 2200 feet AGL
Clouds: broken clouds at 2200 feet AGL
overcast cloud deck at 2500 feet AGL
Weather: no significant weather observed at this time

METAR text: ROYN 280300Z AUTO 35012KT 9999 SCT021 BKN029 23/18 Q1017
Conditions at: ROYN (YONAGUNI AIRPORT, JP) observed 0300 UTC 28 February 2021
Temperature: 23.0°C (73°F)
Dewpoint: 18.0°C (64°F) [RH = 73%]
Pressure (altimeter): 30.03 inches Hg (1017.0 mb)
Winds: from the N (350 degrees) at 14 MPH (12 knots; 6.2 m/s)
Visibility: 6 or more miles (10+ km)
Ceiling: 2900 feet AGL
Clouds: scattered clouds at 2100 feet AGL
broken clouds at 2900 feet AGL
Weather: no significant weather observed at this time

METAR text: ROYN 280200Z AUTO 35011KT 9999 SCT021 BKN025 OVC029 23/18 Q1017
Conditions at: ROYN (YONAGUNI AIRPORT, JP) observed 0200 UTC 28 February 2021
Temperature: 23.0°C (73°F)
Dewpoint: 18.0°C (64°F) [RH = 73%]
Pressure (altimeter): 30.03 inches Hg (1017.0 mb)
Winds: from the N (350 degrees) at 13 MPH (11 knots; 5.7 m/s)
Visibility: 6 or more miles (10+ km)
Ceiling: 2500 feet AGL
Clouds: scattered clouds at 2100 feet AGL
broken clouds at 2500 feet AGL
overcast cloud deck at 2900 feet AGL
Weather: no significant weather observed at this time

METAR text: ROYN 280100Z AUTO 34010KT 9999 FEW021 OVC025 22/18 Q1017
Conditions at: ROYN (YONAGUNI AIRPORT, JP) observed 0100 UTC 28 February 2021
Temperature: 22.0°C (72°F)
Dewpoint: 18.0°C (64°F) [RH = 78%]
Pressure (altimeter): 30.03 inches Hg (1017.0 mb)
Winds: from the NNW (340 degrees) at 12 MPH (10 knots; 5.1 m/s)
Visibility: 6 or more miles (10+ km)
Ceiling: 2500 feet AGL
Clouds: few clouds at 2100 feet AGL
overcast cloud deck at 2500 feet AGL
Weather: no significant weather observed at this time

METAR text: ROYN 280000Z AUTO 35013KT 9999 FEW020 SCT024 OVC026 21/18 Q1017
Conditions at: ROYN (YONAGUNI AIRPORT, JP) observed 0000 UTC 28 February 2021
Temperature: 21.0°C (70°F)
Dewpoint: 18.0°C (64°F) [RH = 83%]
Pressure (altimeter): 30.03 inches Hg (1017.0 mb)
Winds: from the N (350 degrees) at 15 MPH (13 knots; 6.7 m/s)
Visibility: 6 or more miles (10+ km)
Ceiling: 2600 feet AGL
Clouds: few clouds at 2000 feet AGL
scattered clouds at 2400 feet AGL
overcast cloud deck at 2600 feet AGL
Weather: no significant weather observed at this time

METAR text: ROYN 272300Z AUTO 35014KT 9999 FEW020 OVC029 21/17 Q1016
Conditions at: ROYN (YONAGUNI AIRPORT, JP) observed 2300 UTC 27 February 2021
Temperature: 21.0°C (70°F)
Dewpoint: 17.0°C (63°F) [RH = 78%]
Pressure (altimeter): 30.00 inches Hg (1016.0 mb)
Winds: from the N (350 degrees) at 16 MPH (14 knots; 7.2 m/s)
Visibility: 6 or more miles (10+ km)
Ceiling: 2900 feet AGL
Clouds: few clouds at 2000 feet AGL
overcast cloud deck at 2900 feet AGL
Weather: no significant weather observed at this time

METAR text: ROYN 272200Z AUTO 35015KT 9999 FEW025 OVC029 21/17 Q1015
Conditions at: ROYN (YONAGUNI AIRPORT, JP) observed 2200 UTC 27 February 2021
Temperature: 21.0°C (70°F)
Dewpoint: 17.0°C (63°F) [RH = 78%]
Pressure (altimeter): 29.97 inches Hg (1015.0 mb)
Winds: from the N (350 degrees) at 17 MPH (15 knots; 7.7 m/s)
Visibility: 6 or more miles (10+ km)
Ceiling: 2900 feet AGL
Clouds: few clouds at 2500 feet AGL
overcast cloud deck at 2900 feet AGL
Weather: no significant weather observed at this time

METAR text: ROYN 272100Z AUTO 35015KT 9999 FEW021 OVC031 21/17 Q1015
Conditions at: ROYN (YONAGUNI AIRPORT, JP) observed 2100 UTC 27 February 2021
Temperature: 21.0°C (70°F)
Dewpoint: 17.0°C (63°F) [RH = 78%]
Pressure (altimeter): 29.97 inches Hg (1015.0 mb)
Winds: from the N (350 degrees) at 17 MPH (15 knots; 7.7 m/s)
Visibility: 6 or more miles (10+ km)
Ceiling: 3100 feet AGL
Clouds: few clouds at 2100 feet AGL
overcast cloud deck at 3100 feet AGL
Weather: no significant weather observed at this time

METAR text: ROYN 272000Z AUTO 35015KT 9999 FEW023 OVC029 21/17 Q1015
Conditions at: ROYN (YONAGUNI AIRPORT, JP) observed 2000 UTC 27 February 2021
Temperature: 21.0°C (70°F)
Dewpoint: 17.0°C (63°F) [RH = 78%]
Pressure (altimeter): 29.97 inches Hg (1015.0 mb)
Winds: from the N (350 degrees) at 17 MPH (15 knots; 7.7 m/s)
Visibility: 6 or more miles (10+ km)
Ceiling: 2900 feet AGL
Clouds: few clouds at 2300 feet AGL
overcast cloud deck at 2900 feet AGL
Weather: no significant weather observed at this time

METAR text: ROYN 271900Z AUTO 36014KT 9999 BKN021 OVC026 21/17 Q1015
Conditions at: ROYN (YONAGUNI AIRPORT, JP) observed 1900 UTC 27 February 2021
Temperature: 21.0°C (70°F)
Dewpoint: 17.0°C (63°F) [RH = 78%]
Pressure (altimeter): 29.97 inches Hg (1015.0 mb)
Winds: from the N (360 degrees) at 16 MPH (14 knots; 7.2 m/s)
Visibility: 6 or more miles (10+ km)
Ceiling: 2100 feet AGL
Clouds: broken clouds at 2100 feet AGL
overcast cloud deck at 2600 feet AGL
Weather: no significant weather observed at this time

METAR text: ROYN 271800Z AUTO 36015KT 9999 FEW020 SCT023 OVC029 21/17 Q1015
Conditions at: ROYN (YONAGUNI AIRPORT, JP) observed 1800 UTC 27 February 2021
Temperature: 21.0°C (70°F)
Dewpoint: 17.0°C (63°F) [RH = 78%]
Pressure (altimeter): 29.97 inches Hg (1015.0 mb)
Winds: from the N (360 degrees) at 17 MPH (15 knots; 7.7 m/s)
Visibility: 6 or more miles (10+ km)
Ceiling: 2900 feet AGL
Clouds: few clouds at 2000 feet AGL
scattered clouds at 2300 feet AGL
overcast cloud deck at 2900 feet AGL
Weather: no significant weather observed at this time

METAR text: ROYN 271700Z AUTO 36016KT 9999 SCT019 BKN023 OVC026 21/18 Q1015
Conditions at: ROYN (YONAGUNI AIRPORT, JP) observed 1700 UTC 27 February 2021
Temperature: 21.0°C (70°F)
Dewpoint: 18.0°C (64°F) [RH = 83%]
Pressure (altimeter): 29.97 inches Hg (1015.0 mb)
Winds: from the N (360 degrees) at 18 MPH (16 knots; 8.2 m/s)
Visibility: 6 or more miles (10+ km)
Ceiling: 2300 feet AGL
Clouds: scattered clouds at 1900 feet AGL
broken clouds at 2300 feet AGL
overcast cloud deck at 2600 feet AGL
Weather: no significant weather observed at this time

METAR text: ROYN 271600Z AUTO 36016KT 9999 FEW020 BKN029 OVC044 21/17 Q1015
Conditions at: ROYN (YONAGUNI AIRPORT, JP) observed 1600 UTC 27 February 2021
Temperature: 21.0°C (70°F)
Dewpoint: 17.0°C (63°F) [RH = 78%]
Pressure (altimeter): 29.97 inches Hg (1015.0 mb)
Winds: from the N (360 degrees) at 18 MPH (16 knots; 8.2 m/s)
Visibility: 6 or more miles (10+ km)
Ceiling: 2900 feet AGL
Clouds: few clouds at 2000 feet AGL
broken clouds at 2900 feet AGL
overcast cloud deck at 4400 feet AGL
Weather: no significant weather observed at this time

METAR text: ROYN 271500Z AUTO 36018KT 9999 FEW019 SCT036 OVC046 21/18 Q1015
Conditions at: ROYN (YONAGUNI AIRPORT, JP) observed 1500 UTC 27 February 2021
Temperature: 21.0°C (70°F)
Dewpoint: 18.0°C (64°F) [RH = 83%]
Pressure (altimeter): 29.97 inches Hg (1015.0 mb)
Winds: from the N (360 degrees) at 21 MPH (18 knots; 9.3 m/s)
Visibility: 6 or more miles (10+ km)
Ceiling: 4600 feet AGL
Clouds: few clouds at 1900 feet AGL
scattered clouds at 3600 feet AGL
overcast cloud deck at 4600 feet AGL
Weather: no significant weather observed at this time

METAR text: ROYN 271400Z AUTO 36019KT 9999 BKN018 BKN025 BKN034 21/18 Q1016
Conditions at: ROYN (YONAGUNI AIRPORT, JP) observed 1400 UTC 27 February 2021
Temperature: 21.0°C (70°F)
Dewpoint: 18.0°C (64°F) [RH = 83%]
Pressure (altimeter): 30.00 inches Hg (1016.0 mb)
Winds: from the N (360 degrees) at 22 MPH (19 knots; 9.8 m/s)
Visibility: 6 or more miles (10+ km)
Ceiling: 1800 feet AGL
Clouds: broken clouds at 1800 feet AGL
broken clouds at 2500 feet AGL
broken clouds at 3400 feet AGL
Weather: no significant weather observed at this time